createdAt,value
2017-12-03T00:00:51.819Z,1.86
2017-12-03T00:01:51.779Z,1.75
2017-12-03T00:02:51.743Z,1.79
2017-12-03T00:03:51.713Z,1.89
2017-12-03T00:04:51.682Z,1.85
2017-12-03T00:05:51.644Z,1.88
2017-12-03T00:06:51.628Z,1.82
2017-12-03T00:07:51.592Z,1.83
2017-12-03T00:08:51.557Z,1.89
2017-12-03T00:09:51.520Z,1.75
2017-12-03T00:10:51.489Z,1.75
2017-12-03T00:11:51.460Z,1.75
2017-12-03T00:12:51.420Z,1.79
2017-12-03T00:13:51.390Z,1.85
2017-12-03T00:14:51.362Z,1.79
2017-12-03T00:15:51.314Z,1.82
2017-12-03T00:16:51.590Z,1.81
2017-12-03T00:17:51.255Z,1.88
2017-12-03T00:18:51.217Z,1.89
2017-12-03T00:19:51.191Z,1.86
2017-12-03T00:20:51.162Z,1.88
2017-12-03T00:21:51.124Z,1.88
2017-12-03T00:22:51.342Z,1.88
2017-12-03T00:23:51.068Z,1.82
2017-12-03T00:24:51.032Z,1.86
2017-12-03T00:25:51.000Z,1.92
2017-12-03T00:26:50.961Z,1.88
2017-12-03T00:27:50.927Z,1.85
2017-12-03T00:28:50.900Z,1.90
2017-12-03T00:29:50.873Z,2.02
2017-12-03T00:30:50.825Z,1.93
2017-12-03T00:31:50.798Z,1.93
2017-12-03T00:32:50.766Z,1.98
2017-12-03T00:33:50.736Z,1.98
2017-12-03T00:34:50.697Z,2.02
2017-12-03T00:35:50.666Z,1.88
2017-12-03T00:36:50.638Z,1.93
2017-12-03T00:37:50.605Z,2.01
2017-12-03T00:38:50.582Z,1.90
2017-12-03T00:39:50.541Z,1.86
2017-12-03T00:40:50.771Z,1.90
2017-12-03T00:41:50.467Z,1.93
2017-12-03T00:42:50.448Z,1.92
2017-12-03T00:43:50.404Z,1.95
2017-12-03T00:44:50.397Z,1.92
2017-12-03T00:45:50.350Z,1.92
2017-12-03T00:46:50.303Z,1.88
2017-12-03T00:47:50.275Z,1.93
2017-12-03T00:48:50.249Z,2.02
2017-12-03T00:49:50.210Z,2.01
2017-12-03T00:50:50.182Z,1.98
2017-12-03T00:51:50.443Z,2.02
2017-12-03T00:52:50.111Z,1.93
2017-12-03T00:53:50.074Z,2.02
2017-12-03T00:54:50.054Z,1.92
2017-12-03T00:55:50.020Z,1.95
2017-12-03T00:56:49.987Z,2.00
2017-12-03T00:57:50.244Z,2.11
2017-12-03T00:58:49.920Z,2.07
2017-12-03T00:59:49.890Z,1.93
2017-12-03T01:00:49.856Z,1.95
2017-12-03T01:01:49.820Z,1.93
2017-12-03T01:02:49.787Z,2.02
2017-12-03T01:03:50.014Z,1.93
2017-12-03T01:04:49.727Z,1.98
2017-12-03T01:05:49.685Z,1.93
2017-12-03T01:06:49.653Z,1.98
2017-12-03T01:07:49.617Z,1.98
2017-12-03T01:08:49.585Z,2.02
2017-12-03T01:09:50.102Z,2.00
2017-12-03T01:10:49.525Z,1.88
2017-12-03T01:11:49.498Z,1.98
2017-12-03T01:12:49.455Z,2.00
2017-12-03T01:13:49.439Z,1.92
2017-12-03T01:14:49.401Z,2.01
2017-12-03T01:15:49.360Z,1.93
2017-12-03T01:16:49.341Z,1.89
2017-12-03T01:17:49.303Z,1.90
2017-12-03T01:18:49.264Z,2.00
2017-12-03T01:19:49.232Z,1.95
2017-12-03T01:20:49.199Z,2.07
2017-12-03T01:21:49.171Z,2.01
2017-12-03T01:22:49.126Z,2.00
2017-12-03T01:23:49.103Z,2.01
2017-12-03T01:24:49.062Z,2.01
2017-12-03T01:25:49.044Z,2.02
2017-12-03T01:26:49.004Z,2.08
2017-12-03T01:27:49.219Z,2.00
2017-12-03T01:28:48.935Z,2.11
2017-12-03T01:29:48.909Z,2.09
2017-12-03T01:30:48.875Z,2.19
2017-12-03T01:31:48.841Z,1.98
2017-12-03T01:32:48.811Z,2.05
2017-12-03T01:33:49.077Z,2.04
2017-12-03T01:34:48.744Z,2.09
2017-12-03T01:35:48.706Z,2.08
2017-12-03T01:36:48.679Z,2.09
2017-12-03T01:37:48.659Z,2.00
2017-12-03T01:38:48.608Z,2.04
2017-12-03T01:39:48.832Z,1.98
2017-12-03T01:40:48.548Z,1.95
2017-12-03T01:41:48.514Z,2.05
2017-12-03T01:42:48.480Z,1.95
2017-12-03T01:43:48.451Z,1.93
2017-12-03T01:44:48.417Z,2.00
2017-12-03T01:45:48.384Z,1.98
2017-12-03T01:46:48.354Z,1.98
2017-12-03T01:47:48.321Z,2.01
2017-12-03T01:48:48.281Z,2.01
2017-12-03T01:49:48.260Z,1.98
2017-12-03T01:50:48.213Z,2.12
2017-12-03T01:51:48.438Z,2.02
2017-12-03T01:52:48.164Z,2.14
2017-12-03T01:53:48.117Z,2.05
2017-12-03T01:54:48.113Z,2.04
2017-12-03T01:55:48.054Z,2.00
2017-12-03T01:56:48.029Z,2.04
2017-12-03T01:57:47.983Z,2.07
2017-12-03T01:58:47.962Z,1.98
2017-12-03T01:59:47.921Z,1.98
2017-12-03T02:00:47.885Z,2.00
2017-12-03T02:01:47.858Z,1.92
2017-12-03T02:02:47.828Z,2.00
2017-12-03T02:03:48.054Z,1.86
2017-12-03T02:04:47.768Z,1.95
2017-12-03T02:05:47.731Z,1.98
2017-12-03T02:06:47.695Z,1.88
2017-12-03T02:07:47.667Z,1.89
2017-12-03T02:08:47.631Z,1.88
2017-12-03T02:09:47.908Z,1.88
2017-12-03T02:10:47.572Z,1.89
2017-12-03T02:11:47.540Z,1.92
2017-12-03T02:12:47.510Z,1.86
2017-12-03T02:13:47.474Z,1.90
2017-12-03T02:14:47.445Z,1.90
2017-12-03T02:15:47.395Z,1.90
2017-12-03T02:16:47.375Z,1.93
2017-12-03T02:17:47.344Z,1.90
2017-12-03T02:18:47.297Z,1.92
2017-12-03T02:19:47.267Z,1.90
2017-12-03T02:20:47.235Z,1.93
2017-12-03T02:21:47.506Z,1.93
2017-12-03T02:22:47.179Z,2.11
2017-12-03T02:23:47.150Z,1.89
2017-12-03T02:24:47.104Z,1.86
2017-12-03T02:25:47.074Z,2.00
2017-12-03T02:26:47.046Z,2.01
2017-12-03T02:27:47.312Z,1.98
2017-12-03T02:28:46.978Z,1.90
2017-12-03T02:29:46.949Z,1.98
2017-12-03T02:30:46.906Z,1.95
2017-12-03T02:31:46.890Z,1.88
2017-12-03T02:32:46.849Z,1.88
2017-12-03T02:33:47.064Z,1.93
2017-12-03T02:34:46.783Z,1.88
2017-12-03T02:35:46.747Z,1.92
2017-12-03T02:36:46.711Z,1.79
2017-12-03T02:37:46.688Z,1.85
2017-12-03T02:38:46.652Z,1.88
2017-12-03T02:39:46.616Z,1.89
2017-12-03T02:40:46.579Z,1.88
2017-12-03T02:41:46.552Z,1.90
2017-12-03T02:42:46.532Z,1.93
2017-12-03T02:43:46.753Z,2.00
2017-12-03T02:44:46.459Z,2.02
2017-12-03T02:45:46.420Z,2.00
2017-12-03T02:46:46.391Z,2.04
2017-12-03T02:47:46.357Z,2.02
2017-12-03T02:48:46.321Z,2.07
2017-12-03T02:49:46.295Z,2.15
2017-12-03T02:50:46.260Z,2.14
2017-12-03T02:51:46.478Z,2.11
2017-12-03T02:52:46.186Z,2.09
2017-12-03T02:53:46.157Z,2.15
2017-12-03T02:54:46.133Z,2.18
2017-12-03T02:55:46.095Z,2.22
2017-12-03T02:56:46.059Z,2.18
2017-12-03T02:57:46.324Z,2.18
2017-12-03T02:58:45.991Z,2.18
2017-12-03T02:59:45.965Z,2.27
2017-12-03T03:00:45.928Z,2.23
2017-12-03T03:01:45.899Z,2.22
2017-12-03T03:02:45.866Z,2.20
2017-12-03T03:03:45.836Z,2.30
2017-12-03T03:04:45.800Z,2.22
2017-12-03T03:05:45.769Z,2.27
2017-12-03T03:06:45.736Z,2.23
2017-12-03T03:07:45.695Z,2.26
2017-12-03T03:08:45.661Z,2.25
2017-12-03T03:09:45.927Z,2.18
2017-12-03T03:10:45.608Z,2.15
2017-12-03T03:11:45.569Z,2.19
2017-12-03T03:12:45.531Z,2.09
2017-12-03T03:13:45.499Z,2.12
2017-12-03T03:14:45.536Z,2.19
2017-12-03T03:15:45.995Z,2.12
2017-12-03T03:16:45.417Z,2.20
2017-12-03T03:17:45.378Z,2.18
2017-12-03T03:18:45.343Z,2.18
2017-12-03T03:19:45.304Z,2.23
2017-12-03T03:20:45.283Z,2.23
2017-12-03T03:21:45.499Z,2.19
2017-12-03T03:22:45.214Z,2.12
2017-12-03T03:23:45.183Z,2.11
2017-12-03T03:24:45.139Z,2.15
2017-12-03T03:25:45.114Z,2.20
2017-12-03T03:26:45.081Z,2.18
2017-12-03T03:27:45.047Z,2.14
2017-12-03T03:28:45.020Z,2.19
2017-12-03T03:29:44.978Z,2.20
2017-12-03T03:30:44.953Z,2.18
2017-12-03T03:31:44.918Z,2.25
2017-12-03T03:32:45.200Z,2.20
2017-12-03T03:33:44.861Z,2.25
2017-12-03T03:34:44.824Z,2.27
2017-12-03T03:35:44.797Z,2.14
2017-12-03T03:36:44.768Z,2.18
2017-12-03T03:37:44.723Z,2.19
2017-12-03T03:38:44.691Z,2.20
2017-12-03T03:39:44.669Z,2.09
2017-12-03T03:40:44.621Z,2.14
2017-12-03T03:41:44.598Z,2.19
2017-12-03T03:42:44.558Z,2.15
2017-12-03T03:43:44.528Z,2.12
2017-12-03T03:44:44.496Z,2.11
2017-12-03T03:45:44.470Z,2.05
2017-12-03T03:46:44.437Z,2.09
2017-12-03T03:47:44.407Z,2.11
2017-12-03T03:48:44.372Z,2.09
2017-12-03T03:49:44.335Z,2.01
2017-12-03T03:50:44.302Z,2.02
2017-12-03T03:51:44.276Z,2.05
2017-12-03T03:52:44.248Z,2.14
2017-12-03T03:53:44.210Z,2.19
2017-12-03T03:54:44.165Z,2.05
2017-12-03T03:55:44.145Z,2.09
2017-12-03T03:56:44.354Z,2.09
2017-12-03T03:57:44.075Z,2.12
2017-12-03T03:58:44.049Z,2.07
2017-12-03T03:59:44.018Z,2.01
2017-12-03T04:00:44.026Z,2.02
2017-12-03T04:01:43.939Z,2.00
2017-12-03T04:02:43.915Z,2.01
2017-12-03T04:03:43.885Z,1.93
2017-12-03T04:04:43.853Z,1.92
2017-12-03T04:05:43.816Z,2.00
2017-12-03T04:06:43.778Z,1.98
2017-12-03T04:07:43.749Z,1.93
2017-12-03T04:08:43.732Z,2.00
2017-12-03T04:09:43.690Z,1.92
2017-12-03T04:10:43.652Z,1.98
2017-12-03T04:11:43.623Z,1.90
2017-12-03T04:12:43.590Z,1.93
2017-12-03T04:13:43.555Z,2.05
2017-12-03T04:14:43.538Z,2.01
2017-12-03T04:15:43.488Z,1.89
2017-12-03T04:16:43.474Z,2.00
2017-12-03T04:17:43.419Z,2.01
2017-12-03T04:18:43.391Z,1.93
2017-12-03T04:19:43.357Z,1.95
2017-12-03T04:20:43.325Z,1.95
2017-12-03T04:21:43.294Z,1.95
2017-12-03T04:22:43.268Z,1.93
2017-12-03T04:23:43.238Z,1.93
2017-12-03T04:24:43.195Z,1.98
2017-12-03T04:25:43.173Z,1.93
2017-12-03T04:26:43.428Z,2.00
2017-12-03T04:27:43.093Z,2.00
2017-12-03T04:28:43.065Z,2.00
2017-12-03T04:29:43.035Z,1.85
2017-12-03T04:30:43.008Z,1.95
2017-12-03T04:31:42.972Z,2.01
2017-12-03T04:32:43.240Z,1.93
2017-12-03T04:33:42.910Z,1.92
2017-12-03T04:34:42.871Z,1.95
2017-12-03T04:35:42.847Z,2.04
2017-12-03T04:36:42.808Z,2.00
2017-12-03T04:37:42.780Z,1.98
2017-12-03T04:38:42.992Z,2.04
2017-12-03T04:39:42.703Z,2.02
2017-12-03T04:40:42.683Z,1.93
2017-12-03T04:41:42.647Z,2.01
2017-12-03T04:42:42.615Z,1.89
2017-12-03T04:43:42.583Z,1.98
2017-12-03T04:44:42.796Z,1.93
2017-12-03T04:45:42.519Z,2.00
2017-12-03T04:46:42.479Z,2.05
2017-12-03T04:47:42.453Z,2.11
2017-12-03T04:48:42.420Z,2.09
2017-12-03T04:49:42.385Z,1.95
2017-12-03T04:50:42.649Z,1.95
2017-12-03T04:51:42.325Z,1.98
2017-12-03T04:52:42.291Z,1.98
2017-12-03T04:53:42.258Z,2.00
2017-12-03T04:54:42.234Z,1.98
2017-12-03T04:55:42.186Z,1.93
2017-12-03T04:56:42.158Z,1.93
2017-12-03T04:57:42.125Z,2.00
2017-12-03T04:58:42.092Z,1.90
2017-12-03T04:59:42.057Z,1.93
2017-12-03T05:00:42.022Z,1.90
2017-12-03T05:01:42.001Z,1.92
2017-12-03T05:02:42.219Z,1.86
2017-12-03T05:03:41.933Z,2.02
2017-12-03T05:04:41.897Z,2.01
2017-12-03T05:05:41.864Z,1.95
2017-12-03T05:06:41.836Z,1.92
2017-12-03T05:07:41.797Z,1.88
2017-12-03T05:08:42.114Z,1.93
2017-12-03T05:09:41.749Z,1.90
2017-12-03T05:10:41.699Z,2.04
2017-12-03T05:11:41.677Z,2.05
2017-12-03T05:12:41.636Z,2.00
2017-12-03T05:13:41.611Z,2.01
2017-12-03T05:14:41.576Z,2.02
2017-12-03T05:15:41.597Z,1.93
2017-12-03T05:16:41.507Z,2.00
2017-12-03T05:17:41.478Z,1.90
2017-12-03T05:18:41.444Z,1.86
2017-12-03T05:19:41.407Z,1.95
2017-12-03T05:20:41.373Z,1.92
2017-12-03T05:21:41.337Z,1.93
2017-12-03T05:22:41.315Z,1.89
2017-12-03T05:23:41.290Z,1.89
2017-12-03T05:24:41.253Z,1.90
2017-12-03T05:25:41.212Z,1.90
2017-12-03T05:26:41.183Z,1.92
2017-12-03T05:27:41.150Z,1.98
2017-12-03T05:28:41.123Z,1.89
2017-12-03T05:29:41.081Z,1.86
2017-12-03T05:30:41.049Z,2.00
2017-12-03T05:31:41.016Z,2.00
2017-12-03T05:32:40.984Z,1.86
2017-12-03T05:33:40.950Z,1.89
2017-12-03T05:34:40.928Z,1.85
2017-12-03T05:35:40.900Z,1.88
2017-12-03T05:36:40.862Z,1.89
2017-12-03T05:37:41.125Z,1.83
2017-12-03T05:38:40.797Z,1.89
2017-12-03T05:39:40.763Z,1.92
2017-12-03T05:40:40.727Z,1.92
2017-12-03T05:41:40.692Z,1.83
2017-12-03T05:42:40.653Z,1.83
2017-12-03T05:43:40.628Z,1.92
2017-12-03T05:44:40.596Z,1.92
2017-12-03T05:45:40.576Z,1.89
2017-12-03T05:46:40.523Z,1.92
2017-12-03T05:47:40.499Z,1.85
2017-12-03T05:48:40.460Z,1.85
2017-12-03T05:49:40.425Z,1.89
2017-12-03T05:50:40.407Z,1.90
2017-12-03T05:51:40.375Z,1.92
2017-12-03T05:52:40.339Z,1.98
2017-12-03T05:53:40.297Z,1.92
2017-12-03T05:54:40.277Z,1.89
2017-12-03T05:55:40.242Z,1.93
2017-12-03T05:56:40.208Z,1.90
2017-12-03T05:57:40.168Z,1.93
2017-12-03T05:58:40.135Z,1.93
2017-12-03T05:59:40.103Z,2.00
2017-12-03T06:00:40.087Z,1.95
2017-12-03T06:01:40.344Z,2.07
2017-12-03T06:02:40.003Z,1.98
2017-12-03T06:03:39.978Z,2.02
2017-12-03T06:04:39.948Z,1.95
2017-12-03T06:05:39.905Z,2.12
2017-12-03T06:06:39.880Z,2.05
2017-12-03T06:07:40.105Z,2.02
2017-12-03T06:08:39.809Z,1.95
2017-12-03T06:09:39.777Z,2.09
2017-12-03T06:10:39.751Z,1.98
2017-12-03T06:11:39.717Z,2.12
2017-12-03T06:12:39.692Z,2.11
2017-12-03T06:13:39.903Z,2.12
2017-12-03T06:14:39.613Z,2.18
2017-12-03T06:15:39.586Z,2.12
2017-12-03T06:16:39.562Z,2.15
2017-12-03T06:17:39.523Z,2.20
2017-12-03T06:18:39.492Z,2.19
2017-12-03T06:19:39.464Z,2.08
2017-12-03T06:20:39.428Z,2.11
2017-12-03T06:21:39.387Z,2.07
2017-12-03T06:22:39.359Z,2.08
2017-12-03T06:23:39.326Z,2.07
2017-12-03T06:24:39.296Z,2.09
2017-12-03T06:25:39.813Z,2.19
2017-12-03T06:26:39.240Z,2.11
2017-12-03T06:27:39.192Z,2.11
2017-12-03T06:28:39.162Z,2.18
2017-12-03T06:29:39.131Z,2.14
2017-12-03T06:30:39.106Z,2.12
2017-12-03T06:31:39.074Z,2.19
2017-12-03T06:32:39.037Z,2.14
2017-12-03T06:33:39.001Z,2.20
2017-12-03T06:34:38.970Z,2.23
2017-12-03T06:35:38.942Z,2.18
2017-12-03T06:36:38.914Z,2.23
2017-12-03T06:37:38.880Z,2.32
2017-12-03T06:38:38.849Z,2.30
2017-12-03T06:39:38.803Z,2.32
2017-12-03T06:40:38.778Z,2.26
2017-12-03T06:41:38.779Z,2.30
2017-12-03T06:42:38.713Z,2.26
2017-12-03T06:43:39.032Z,2.27
2017-12-03T06:44:38.649Z,2.27
2017-12-03T06:45:38.622Z,2.27
2017-12-03T06:46:38.601Z,2.23
2017-12-03T06:47:38.556Z,2.32
2017-12-03T06:48:38.521Z,2.23
2017-12-03T06:49:38.734Z,2.33
2017-12-03T06:50:38.452Z,2.25
2017-12-03T06:51:38.426Z,2.29
2017-12-03T06:52:38.396Z,2.30
2017-12-03T06:53:38.386Z,2.29
2017-12-03T06:54:38.327Z,2.41
2017-12-03T06:55:38.288Z,2.29
2017-12-03T06:56:38.266Z,2.33
2017-12-03T06:57:38.237Z,2.26
2017-12-03T06:58:38.200Z,2.27
2017-12-03T06:59:38.163Z,2.36
2017-12-03T07:00:38.130Z,2.29
2017-12-03T07:01:38.101Z,2.36
2017-12-03T07:02:38.065Z,2.37
2017-12-03T07:03:38.046Z,2.38
2017-12-03T07:04:38.009Z,2.41
2017-12-03T07:05:37.973Z,2.45
2017-12-03T07:06:38.195Z,2.40
2017-12-03T07:07:37.905Z,2.38
2017-12-03T07:08:37.871Z,2.43
2017-12-03T07:09:37.847Z,2.40
2017-12-03T07:10:37.811Z,2.30
2017-12-03T07:11:37.780Z,2.37
2017-12-03T07:12:38.054Z,2.45
2017-12-03T07:13:37.712Z,2.38
2017-12-03T07:14:37.680Z,2.44
2017-12-03T07:15:37.650Z,2.47
2017-12-03T07:16:37.617Z,2.43
2017-12-03T07:17:37.589Z,2.38
2017-12-03T07:18:37.558Z,2.41
2017-12-03T07:19:37.520Z,2.51
2017-12-03T07:20:37.487Z,2.50
2017-12-03T07:21:37.455Z,2.48
2017-12-03T07:22:37.432Z,2.41
2017-12-03T07:23:37.400Z,2.38
2017-12-03T07:24:37.365Z,2.47
2017-12-03T07:25:37.329Z,2.43
2017-12-03T07:26:37.290Z,2.40
2017-12-03T07:27:37.261Z,2.40
2017-12-03T07:28:37.236Z,2.43
2017-12-03T07:29:37.454Z,2.44
2017-12-03T07:30:37.171Z,2.43
2017-12-03T07:31:37.127Z,2.33
2017-12-03T07:32:37.096Z,2.47
2017-12-03T07:33:37.061Z,2.56
2017-12-03T07:34:37.042Z,2.55
2017-12-03T07:35:37.002Z,2.43
2017-12-03T07:36:36.976Z,2.40
2017-12-03T07:37:36.942Z,2.47
2017-12-03T07:38:36.905Z,2.50
2017-12-03T07:39:36.884Z,2.55
2017-12-03T07:40:36.846Z,2.41
2017-12-03T07:41:36.808Z,2.50
2017-12-03T07:42:36.780Z,2.43
2017-12-03T07:43:36.748Z,2.48
2017-12-03T07:44:36.719Z,2.53
2017-12-03T07:45:36.686Z,2.61
2017-12-03T07:46:36.641Z,2.53
2017-12-03T07:47:36.874Z,2.53
2017-12-03T07:48:36.585Z,2.58
2017-12-03T07:49:36.546Z,2.53
2017-12-03T07:50:36.524Z,2.56
2017-12-03T07:51:36.493Z,2.51
2017-12-03T07:52:36.458Z,2.53
2017-12-03T07:53:36.721Z,2.53
2017-12-03T07:54:36.396Z,2.51
2017-12-03T07:55:36.356Z,2.61
2017-12-03T07:56:36.334Z,2.55
2017-12-03T07:57:36.296Z,2.68
2017-12-03T07:58:36.265Z,2.69
2017-12-03T07:59:36.231Z,2.71
2017-12-03T08:00:36.196Z,2.71
2017-12-03T08:01:36.173Z,2.79
2017-12-03T08:02:36.134Z,2.74
2017-12-03T08:03:36.106Z,2.74
2017-12-03T08:04:36.075Z,2.69
2017-12-03T08:05:36.043Z,2.77
2017-12-03T08:06:36.011Z,2.76
2017-12-03T08:07:35.982Z,2.80
2017-12-03T08:08:35.942Z,2.83
2017-12-03T08:09:35.904Z,2.81
2017-12-03T08:10:35.885Z,2.79
2017-12-03T08:11:35.846Z,2.81
2017-12-03T08:12:35.821Z,2.76
2017-12-03T08:13:35.789Z,2.79
2017-12-03T08:14:35.745Z,2.90
2017-12-03T08:15:35.714Z,2.98
2017-12-03T08:16:35.690Z,2.98
2017-12-03T08:17:35.651Z,3.04
2017-12-03T08:18:35.633Z,2.90
2017-12-03T08:19:35.593Z,2.94
2017-12-03T08:20:35.561Z,2.92
2017-12-03T08:21:35.528Z,2.92
2017-12-03T08:22:35.496Z,2.94
2017-12-03T08:23:35.768Z,2.97
2017-12-03T08:24:35.426Z,2.92
2017-12-03T08:25:35.391Z,2.83
2017-12-03T08:26:35.374Z,2.92
2017-12-03T08:27:35.335Z,2.90
2017-12-03T08:28:35.313Z,2.97
2017-12-03T08:29:35.270Z,2.86
2017-12-03T08:30:35.240Z,2.94
2017-12-03T08:31:35.202Z,2.90
2017-12-03T08:32:35.173Z,2.92
2017-12-03T08:33:35.144Z,2.94
2017-12-03T08:34:35.119Z,2.90
2017-12-03T08:35:35.330Z,2.97
2017-12-03T08:36:35.048Z,2.99
2017-12-03T08:37:35.018Z,2.87
2017-12-03T08:38:34.979Z,2.95
2017-12-03T08:39:34.947Z,2.97
2017-12-03T08:40:34.924Z,2.98
2017-12-03T08:41:34.893Z,2.97
2017-12-03T08:42:34.863Z,2.95
2017-12-03T08:43:34.828Z,3.02
2017-12-03T08:44:34.796Z,2.98
2017-12-03T08:45:34.760Z,2.94
2017-12-03T08:46:34.736Z,2.87
2017-12-03T08:47:34.707Z,2.92
2017-12-03T08:48:34.659Z,3.01
2017-12-03T08:49:34.649Z,3.01
2017-12-03T08:50:34.600Z,2.94
2017-12-03T08:51:34.577Z,2.94
2017-12-03T08:52:34.544Z,2.95
2017-12-03T08:53:34.511Z,2.95
2017-12-03T08:54:34.469Z,2.92
2017-12-03T08:55:34.452Z,2.97
2017-12-03T08:56:34.419Z,2.98
2017-12-03T08:57:34.387Z,2.97
2017-12-03T08:58:34.698Z,2.98
2017-12-03T08:59:34.321Z,2.92
2017-12-03T09:00:34.285Z,2.95
2017-12-03T09:01:34.250Z,2.95
2017-12-03T09:02:34.226Z,3.01
2017-12-03T09:03:34.199Z,2.99
2017-12-03T09:04:34.159Z,2.87
2017-12-03T09:05:34.128Z,3.04
2017-12-03T09:06:34.096Z,3.10
2017-12-03T09:07:34.062Z,3.02
2017-12-03T09:08:34.042Z,3.05
2017-12-03T09:09:34.014Z,2.99
2017-12-03T09:10:33.968Z,3.10
2017-12-03T09:11:33.940Z,3.15
2017-12-03T09:12:33.905Z,3.07
2017-12-03T09:13:33.878Z,2.94
2017-12-03T09:14:33.844Z,3.13
2017-12-03T09:15:33.813Z,3.04
2017-12-03T09:16:33.772Z,3.13
2017-12-03T09:17:33.739Z,3.05
2017-12-03T09:18:33.721Z,3.12
2017-12-03T09:19:33.690Z,3.02
2017-12-03T09:20:33.648Z,3.13
2017-12-03T09:21:33.652Z,3.13
2017-12-03T09:22:33.600Z,3.15
2017-12-03T09:23:33.555Z,3.17
2017-12-03T09:24:33.526Z,3.10
2017-12-03T09:25:33.499Z,3.13
2017-12-03T09:26:33.471Z,3.12
2017-12-03T09:27:33.674Z,3.13
2017-12-03T09:28:33.404Z,3.02
2017-12-03T09:29:33.365Z,3.19
2017-12-03T09:30:33.336Z,3.12
2017-12-03T09:31:33.305Z,3.13
2017-12-03T09:32:33.278Z,3.02
2017-12-03T09:33:33.536Z,2.99
2017-12-03T09:34:33.220Z,3.13
2017-12-03T09:35:33.182Z,3.12
2017-12-03T09:36:33.149Z,3.17
2017-12-03T09:37:33.111Z,3.13
2017-12-03T09:38:33.092Z,3.04
2017-12-03T09:39:33.062Z,3.10
2017-12-03T09:40:33.028Z,2.98
2017-12-03T09:41:32.993Z,3.10
2017-12-03T09:42:32.961Z,3.05
2017-12-03T09:43:32.924Z,2.97
2017-12-03T09:44:32.894Z,2.99
2017-12-03T09:45:32.864Z,2.97
2017-12-03T09:46:32.829Z,3.01
2017-12-03T09:47:32.805Z,3.05
2017-12-03T09:48:32.768Z,3.07
2017-12-03T09:49:32.740Z,3.10
2017-12-03T09:50:32.710Z,3.12
2017-12-03T09:51:32.673Z,3.15
2017-12-03T09:52:32.639Z,3.12
2017-12-03T09:53:32.608Z,3.16
2017-12-03T09:54:32.589Z,3.17
2017-12-03T09:55:32.561Z,3.08
2017-12-03T09:56:32.518Z,3.19
2017-12-03T09:57:32.838Z,3.20
2017-12-03T09:58:32.447Z,3.17
2017-12-03T09:59:32.420Z,3.17
2017-12-03T10:00:32.391Z,3.13
2017-12-03T10:01:32.359Z,3.13
2017-12-03T10:02:32.328Z,3.22
2017-12-03T10:03:32.293Z,3.17
2017-12-03T10:04:32.267Z,3.16
2017-12-03T10:05:32.229Z,3.15
2017-12-03T10:06:32.212Z,3.17
2017-12-03T10:07:32.169Z,3.15
2017-12-03T10:08:32.142Z,3.15
2017-12-03T10:09:32.453Z,3.13
2017-12-03T10:10:32.074Z,3.20
2017-12-03T10:11:32.056Z,3.13
2017-12-03T10:12:32.029Z,3.19
2017-12-03T10:13:31.989Z,3.19
2017-12-03T10:14:31.946Z,3.19
2017-12-03T10:15:31.922Z,3.15
2017-12-03T10:16:31.887Z,3.19
2017-12-03T10:17:31.862Z,3.15
2017-12-03T10:18:31.821Z,3.20
2017-12-03T10:19:31.791Z,3.20
2017-12-03T10:20:31.757Z,3.15
2017-12-03T10:21:31.733Z,3.16
2017-12-03T10:22:31.704Z,3.17
2017-12-03T10:23:31.687Z,3.25
2017-12-03T10:24:31.636Z,3.22
2017-12-03T10:25:31.608Z,3.25
2017-12-03T10:26:31.576Z,3.17
2017-12-03T10:27:31.550Z,3.25
2017-12-03T10:28:31.519Z,3.23
2017-12-03T10:29:31.498Z,3.39
2017-12-03T10:30:31.451Z,3.25
2017-12-03T10:31:31.420Z,3.25
2017-12-03T10:32:31.392Z,3.31
2017-12-03T10:33:31.613Z,3.37
2017-12-03T10:34:31.328Z,3.37
2017-12-03T10:35:31.290Z,3.41
2017-12-03T10:36:31.262Z,3.50
2017-12-03T10:37:31.224Z,3.45
2017-12-03T10:38:31.205Z,3.49
2017-12-03T10:39:31.174Z,3.52
2017-12-03T10:40:31.160Z,3.50
2017-12-03T10:41:31.106Z,3.46
2017-12-03T10:42:31.078Z,3.45
2017-12-03T10:43:31.042Z,3.57
2017-12-03T10:44:31.010Z,3.64
2017-12-03T10:45:30.988Z,3.59
2017-12-03T10:46:30.956Z,3.57
2017-12-03T10:47:30.924Z,3.64
2017-12-03T10:48:30.883Z,3.68
2017-12-03T10:49:30.857Z,3.64
2017-12-03T10:50:30.826Z,3.67
2017-12-03T10:51:30.802Z,3.60
2017-12-03T10:52:30.766Z,3.64
2017-12-03T10:53:30.734Z,3.64
2017-12-03T10:54:30.698Z,3.67
2017-12-03T10:55:30.666Z,3.68
2017-12-03T10:56:30.650Z,3.64
2017-12-03T10:57:30.871Z,3.75
2017-12-03T10:58:30.575Z,3.74
2017-12-03T10:59:30.553Z,3.68
2017-12-03T11:00:30.519Z,3.64
2017-12-03T11:01:30.482Z,3.72
2017-12-03T11:02:30.755Z,3.75
2017-12-03T11:03:30.437Z,3.75
2017-12-03T11:04:30.390Z,3.78
2017-12-03T11:05:30.372Z,3.81
2017-12-03T11:06:30.336Z,3.84
2017-12-03T11:07:30.304Z,3.96
2017-12-03T11:08:30.277Z,3.77
2017-12-03T11:09:30.246Z,3.78
2017-12-03T11:10:30.216Z,3.89
2017-12-03T11:11:30.178Z,3.84
2017-12-03T11:12:30.156Z,3.78
2017-12-03T11:13:30.121Z,3.89
2017-12-03T11:14:30.091Z,3.82
2017-12-03T11:15:30.054Z,3.89
2017-12-03T11:16:30.028Z,3.81
2017-12-03T11:17:29.996Z,3.78
2017-12-03T11:18:29.978Z,3.84
2017-12-03T11:19:29.940Z,3.93
2017-12-03T11:20:30.165Z,3.89
2017-12-03T11:21:29.869Z,3.95
2017-12-03T11:22:29.860Z,3.99
2017-12-03T11:23:29.817Z,4.06
2017-12-03T11:24:29.789Z,4.02
2017-12-03T11:25:29.756Z,3.98
2017-12-03T11:26:29.721Z,4.06
2017-12-03T11:27:29.692Z,3.96
2017-12-03T11:28:29.665Z,4.00
2017-12-03T11:29:29.644Z,3.99
2017-12-03T11:30:29.599Z,4.06
2017-12-03T11:31:29.566Z,4.02
2017-12-03T11:32:29.833Z,4.02
2017-12-03T11:33:29.504Z,3.98
2017-12-03T11:34:29.479Z,3.99
2017-12-03T11:35:29.452Z,4.00
2017-12-03T11:36:29.417Z,3.99
2017-12-03T11:37:29.387Z,4.02
2017-12-03T11:38:29.362Z,3.98
2017-12-03T11:39:29.325Z,4.06
2017-12-03T11:40:29.292Z,4.07
2017-12-03T11:41:29.266Z,4.10
2017-12-03T11:42:29.234Z,4.11
2017-12-03T11:43:29.207Z,4.17
2017-12-03T11:44:29.527Z,4.08
2017-12-03T11:45:29.140Z,4.08
2017-12-03T11:46:29.111Z,4.18
2017-12-03T11:47:29.073Z,4.21
2017-12-03T11:48:29.051Z,4.02
2017-12-03T11:49:29.012Z,4.13
2017-12-03T11:50:28.983Z,4.10
2017-12-03T11:51:28.967Z,4.25
2017-12-03T11:52:28.917Z,4.10
2017-12-03T11:53:28.896Z,4.18
2017-12-03T11:54:28.871Z,4.14
2017-12-03T11:55:28.834Z,4.20
2017-12-03T11:56:28.808Z,4.24
2017-12-03T11:57:28.801Z,4.29
2017-12-03T11:58:28.742Z,4.25
2017-12-03T11:59:28.712Z,4.25
2017-12-03T12:00:28.687Z,4.21
2017-12-03T12:01:28.653Z,4.34
2017-12-03T12:02:28.914Z,4.31
2017-12-03T12:03:28.587Z,4.42
2017-12-03T12:04:28.558Z,4.42
2017-12-03T12:05:28.525Z,4.36
2017-12-03T12:06:28.494Z,4.26
2017-12-03T12:07:28.474Z,4.32
2017-12-03T12:08:28.742Z,4.39
2017-12-03T12:09:28.407Z,4.46
2017-12-03T12:10:28.383Z,4.43
2017-12-03T12:11:28.344Z,4.51
2017-12-03T12:12:28.320Z,4.53
2017-12-03T12:13:28.291Z,4.47
2017-12-03T12:14:28.506Z,4.50
2017-12-03T12:15:28.218Z,4.59
2017-12-03T12:16:28.194Z,4.53
2017-12-03T12:17:28.160Z,4.57
2017-12-03T12:18:28.133Z,4.59
2017-12-03T12:19:28.100Z,4.59
2017-12-03T12:20:28.074Z,4.56
2017-12-03T12:21:28.047Z,4.65
2017-12-03T12:22:28.014Z,4.53
2017-12-03T12:23:27.988Z,4.62
2017-12-03T12:24:27.955Z,4.65
2017-12-03T12:25:27.924Z,4.62
2017-12-03T12:26:27.896Z,4.68
2017-12-03T12:27:27.864Z,4.65
2017-12-03T12:28:27.832Z,4.68
2017-12-03T12:29:27.806Z,4.67
2017-12-03T12:30:27.774Z,4.64
2017-12-03T12:31:27.736Z,4.64
2017-12-03T12:32:27.710Z,4.71
2017-12-03T12:33:27.680Z,4.68
2017-12-03T12:34:27.645Z,4.72
2017-12-03T12:35:27.630Z,4.71
2017-12-03T12:36:27.595Z,4.72
2017-12-03T12:37:27.556Z,4.79
2017-12-03T12:38:27.834Z,4.79
2017-12-03T12:39:27.504Z,4.74
2017-12-03T12:40:27.469Z,4.79
2017-12-03T12:41:27.445Z,4.88
2017-12-03T12:42:27.414Z,4.77
2017-12-03T12:43:27.388Z,4.86
2017-12-03T12:44:27.608Z,4.84
2017-12-03T12:45:27.320Z,4.79
2017-12-03T12:46:27.283Z,4.86
2017-12-03T12:47:27.258Z,4.86
2017-12-03T12:48:27.225Z,4.86
2017-12-03T12:49:27.199Z,4.87
2017-12-03T12:50:27.178Z,4.91
2017-12-03T12:51:27.140Z,4.93
2017-12-03T12:52:27.117Z,4.87
2017-12-03T12:53:27.083Z,4.91
2017-12-03T12:54:27.079Z,4.96
2017-12-03T12:55:27.021Z,5.01
2017-12-03T12:56:26.993Z,4.99
2017-12-03T12:57:26.960Z,5.08
2017-12-03T12:58:26.935Z,5.02
2017-12-03T12:59:26.893Z,4.99
2017-12-03T13:00:26.862Z,4.96
2017-12-03T13:01:26.832Z,5.04
2017-12-03T13:02:27.119Z,4.99
2017-12-03T13:03:26.788Z,5.05
2017-12-03T13:04:26.748Z,5.02
2017-12-03T13:05:26.723Z,5.05
2017-12-03T13:06:26.694Z,5.12
2017-12-03T13:07:26.662Z,5.06
2017-12-03T13:08:26.887Z,5.11
2017-12-03T13:09:26.608Z,5.06
2017-12-03T13:10:26.567Z,5.15
2017-12-03T13:11:26.533Z,5.20
2017-12-03T13:12:26.507Z,5.11
2017-12-03T13:13:26.488Z,5.08
2017-12-03T13:14:26.757Z,5.19
2017-12-03T13:15:26.419Z,5.11
2017-12-03T13:16:26.407Z,5.14
2017-12-03T13:17:26.362Z,5.15
2017-12-03T13:18:26.330Z,5.22